sensor_id;sensor_type;location;lat;lon;timestamp;P1;durP1;ratioP1;P2;durP2;ratioP2
63782;SDS011;49925;52.522;5.732;2023-04-03T00:01:19;6.30;;;2.40;;
63782;SDS011;49925;52.522;5.732;2023-04-03T00:03:47;6.18;;;2.30;;
63782;SDS011;49925;52.522;5.732;2023-04-03T00:06:14;5.95;;;2.60;;
63782;SDS011;49925;52.522;5.732;2023-04-03T00:08:42;6.80;;;2.63;;
63782;SDS011;49925;52.522;5.732;2023-04-03T00:11:09;6.32;;;2.60;;
63782;SDS011;49925;52.522;5.732;2023-04-03T00:13:36;6.53;;;2.60;;
63782;SDS011;49925;52.522;5.732;2023-04-03T00:16:05;6.13;;;2.70;;
63782;SDS011;49925;52.522;5.732;2023-04-03T00:18:34;10.75;;;2.60;;
63782;SDS011;49925;52.522;5.732;2023-04-03T00:21:02;6.57;;;2.50;;
63782;SDS011;49925;52.522;5.732;2023-04-03T00:23:30;9.18;;;2.90;;
63782;SDS011;49925;52.522;5.732;2023-04-03T00:25:57;6.88;;;2.88;;
63782;SDS011;49925;52.522;5.732;2023-04-03T00:28:24;4.97;;;2.40;;
63782;SDS011;49925;52.522;5.732;2023-04-03T00:30:51;5.05;;;2.42;;
63782;SDS011;49925;52.522;5.732;2023-04-03T00:33:19;9.25;;;2.50;;
63782;SDS011;49925;52.522;5.732;2023-04-03T00:38:18;7.72;;;2.50;;
63782;SDS011;49925;52.522;5.732;2023-04-03T00:40:46;10.43;;;2.92;;
63782;SDS011;49925;52.522;5.732;2023-04-03T00:43:16;8.40;;;2.47;;
63782;SDS011;49925;52.522;5.732;2023-04-03T00:45:56;7.18;;;2.75;;
63782;SDS011;49925;52.522;5.732;2023-04-03T00:48:28;8.85;;;2.35;;
63782;SDS011;49925;52.522;5.732;2023-04-03T00:51:03;6.25;;;2.58;;
63782;SDS011;49925;52.522;5.732;2023-04-03T00:53:35;8.27;;;2.90;;
63782;SDS011;49925;52.522;5.732;2023-04-03T00:56:09;6.93;;;2.67;;
63782;SDS011;49925;52.522;5.732;2023-04-03T00:59:00;5.57;;;2.70;;
63782;SDS011;49925;52.522;5.732;2023-04-03T01:01:49;4.60;;;2.53;;
63782;SDS011;49925;52.522;5.732;2023-04-03T01:07:07;11.35;;;2.78;;
63782;SDS011;49925;52.522;5.732;2023-04-03T01:09:43;4.88;;;2.42;;
63782;SDS011;49925;52.522;5.732;2023-04-03T01:12:19;8.90;;;2.55;;
63782;SDS011;49925;52.522;5.732;2023-04-03T01:14:52;9.77;;;2.63;;
63782;SDS011;49925;52.522;5.732;2023-04-03T01:20:14;9.80;;;2.60;;
63782;SDS011;49925;52.522;5.732;2023-04-03T01:23:22;10.68;;;2.40;;
63782;SDS011;49925;52.522;5.732;2023-04-03T01:26:04;5.80;;;2.65;;
63782;SDS011;49925;52.522;5.732;2023-04-03T01:28:32;8.77;;;2.50;;
63782;SDS011;49925;52.522;5.732;2023-04-03T01:33:42;9.32;;;3.17;;
63782;SDS011;49925;52.522;5.732;2023-04-03T01:36:15;6.82;;;2.70;;
63782;SDS011;49925;52.522;5.732;2023-04-03T01:38:50;9.60;;;3.10;;
63782;SDS011;49925;52.522;5.732;2023-04-03T01:41:20;10.88;;;3.00;;
63782;SDS011;49925;52.522;5.732;2023-04-03T01:43:48;6.53;;;2.75;;
63782;SDS011;49925;52.522;5.732;2023-04-03T01:46:16;9.23;;;3.20;;
63782;SDS011;49925;52.522;5.732;2023-04-03T01:48:44;7.03;;;2.88;;
63782;SDS011;49925;52.522;5.732;2023-04-03T01:51:12;6.85;;;2.80;;
63782;SDS011;49925;52.522;5.732;2023-04-03T01:53:39;7.10;;;2.70;;
63782;SDS011;49925;52.522;5.732;2023-04-03T01:56:06;6.35;;;2.70;;
63782;SDS011;49925;52.522;5.732;2023-04-03T01:58:33;8.95;;;3.00;;
63782;SDS011;49925;52.522;5.732;2023-04-03T02:01:01;4.85;;;2.13;;
63782;SDS011;49925;52.522;5.732;2023-04-03T02:03:28;9.10;;;2.50;;
63782;SDS011;49925;52.522;5.732;2023-04-03T02:05:56;6.05;;;2.47;;
63782;SDS011;49925;52.522;5.732;2023-04-03T02:08:23;6.75;;;2.53;;
63782;SDS011;49925;52.522;5.732;2023-04-03T02:10:50;6.15;;;2.53;;
63782;SDS011;49925;52.522;5.732;2023-04-03T02:13:18;5.97;;;3.28;;
63782;SDS011;49925;52.522;5.732;2023-04-03T02:15:45;8.93;;;3.03;;
63782;SDS011;49925;52.522;5.732;2023-04-03T02:18:14;9.25;;;2.70;;
63782;SDS011;49925;52.522;5.732;2023-04-03T02:20:41;15.35;;;3.20;;
63782;SDS011;49925;52.522;5.732;2023-04-03T02:23:09;6.90;;;2.80;;
63782;SDS011;49925;52.522;5.732;2023-04-03T02:25:36;7.18;;;2.70;;
63782;SDS011;49925;52.522;5.732;2023-04-03T02:28:04;7.72;;;2.65;;
63782;SDS011;49925;52.522;5.732;2023-04-03T02:30:32;6.80;;;2.60;;
63782;SDS011;49925;52.522;5.732;2023-04-03T02:32:59;11.45;;;2.90;;
63782;SDS011;49925;52.522;5.732;2023-04-03T02:35:27;7.75;;;2.67;;
63782;SDS011;49925;52.522;5.732;2023-04-03T02:37:54;8.30;;;2.95;;
63782;SDS011;49925;52.522;5.732;2023-04-03T02:40:21;7.95;;;2.83;;
63782;SDS011;49925;52.522;5.732;2023-04-03T02:42:49;11.32;;;2.88;;
63782;SDS011;49925;52.522;5.732;2023-04-03T02:45:16;8.90;;;2.80;;
63782;SDS011;49925;52.522;5.732;2023-04-03T02:47:43;10.13;;;2.50;;
63782;SDS011;49925;52.522;5.732;2023-04-03T02:50:10;12.98;;;3.00;;
63782;SDS011;49925;52.522;5.732;2023-04-03T02:52:37;13.52;;;3.22;;
63782;SDS011;49925;52.522;5.732;2023-04-03T02:55:05;10.18;;;2.83;;
63782;SDS011;49925;52.522;5.732;2023-04-03T02:57:32;9.95;;;4.25;;
63782;SDS011;49925;52.522;5.732;2023-04-03T03:00:00;10.70;;;2.72;;
63782;SDS011;49925;52.522;5.732;2023-04-03T03:02:27;8.43;;;2.90;;
63782;SDS011;49925;52.522;5.732;2023-04-03T03:04:54;7.65;;;2.78;;
63782;SDS011;49925;52.522;5.732;2023-04-03T03:07:22;6.05;;;3.08;;
63782;SDS011;49925;52.522;5.732;2023-04-03T03:09:49;12.15;;;3.28;;
63782;SDS011;49925;52.522;5.732;2023-04-03T03:12:16;8.93;;;3.15;;
63782;SDS011;49925;52.522;5.732;2023-04-03T03:14:48;9.80;;;2.92;;
63782;SDS011;49925;52.522;5.732;2023-04-03T03:17:15;7.07;;;2.85;;
63782;SDS011;49925;52.522;5.732;2023-04-03T03:19:43;6.80;;;3.10;;
63782;SDS011;49925;52.522;5.732;2023-04-03T03:22:11;11.05;;;3.72;;
63782;SDS011;49925;52.522;5.732;2023-04-03T03:24:39;7.75;;;2.70;;
63782;SDS011;49925;52.522;5.732;2023-04-03T03:27:06;6.10;;;3.30;;
63782;SDS011;49925;52.522;5.732;2023-04-03T03:29:33;7.93;;;3.13;;
63782;SDS011;49925;52.522;5.732;2023-04-03T03:32:00;7.15;;;3.40;;
63782;SDS011;49925;52.522;5.732;2023-04-03T03:34:27;15.15;;;3.63;;
63782;SDS011;49925;52.522;5.732;2023-04-03T03:36:54;15.20;;;3.45;;
63782;SDS011;49925;52.522;5.732;2023-04-03T03:39:21;7.55;;;3.30;;
63782;SDS011;49925;52.522;5.732;2023-04-03T03:41:49;7.85;;;3.00;;
63782;SDS011;49925;52.522;5.732;2023-04-03T03:44:16;15.35;;;3.13;;
63782;SDS011;49925;52.522;5.732;2023-04-03T05:03:06;14.88;;;3.15;;
63782;SDS011;49925;52.522;5.732;2023-04-03T05:05:33;11.43;;;4.28;;
63782;SDS011;49925;52.522;5.732;2023-04-03T05:08:02;11.13;;;3.67;;
63782;SDS011;49925;52.522;5.732;2023-04-03T05:10:30;12.55;;;3.80;;
63782;SDS011;49925;52.522;5.732;2023-04-03T05:12:57;11.65;;;4.00;;
63782;SDS011;49925;52.522;5.732;2023-04-03T05:15:25;7.32;;;3.45;;
63782;SDS011;49925;52.522;5.732;2023-04-03T05:17:52;7.43;;;3.33;;
63782;SDS011;49925;52.522;5.732;2023-04-03T05:20:19;9.65;;;4.15;;
63782;SDS011;49925;52.522;5.732;2023-04-03T05:22:46;10.55;;;3.63;;
63782;SDS011;49925;52.522;5.732;2023-04-03T05:25:13;11.48;;;3.83;;
63782;SDS011;49925;52.522;5.732;2023-04-03T05:27:41;10.73;;;4.10;;
63782;SDS011;49925;52.522;5.732;2023-04-03T05:30:08;12.45;;;4.28;;
63782;SDS011;49925;52.522;5.732;2023-04-03T05:32:36;11.55;;;4.00;;
63782;SDS011;49925;52.522;5.732;2023-04-03T05:35:04;13.93;;;3.80;;
63782;SDS011;49925;52.522;5.732;2023-04-03T05:37:32;11.77;;;3.85;;
63782;SDS011;49925;52.522;5.732;2023-04-03T05:39:59;10.02;;;3.72;;
63782;SDS011;49925;52.522;5.732;2023-04-03T05:42:27;19.95;;;4.20;;
63782;SDS011;49925;52.522;5.732;2023-04-03T05:44:54;11.90;;;3.67;;
63782;SDS011;49925;52.522;5.732;2023-04-03T05:47:21;12.73;;;3.70;;
63782;SDS011;49925;52.522;5.732;2023-04-03T05:49:49;13.23;;;3.63;;
63782;SDS011;49925;52.522;5.732;2023-04-03T05:52:18;9.35;;;3.47;;
63782;SDS011;49925;52.522;5.732;2023-04-03T05:54:57;8.67;;;3.70;;
63782;SDS011;49925;52.522;5.732;2023-04-03T05:57:24;12.02;;;3.90;;
63782;SDS011;49925;52.522;5.732;2023-04-03T05:59:52;12.10;;;3.90;;
63782;SDS011;49925;52.522;5.732;2023-04-03T06:02:20;9.48;;;3.88;;
63782;SDS011;49925;52.522;5.732;2023-04-03T06:04:49;15.90;;;4.05;;
63782;SDS011;49925;52.522;5.732;2023-04-03T06:07:18;7.72;;;3.50;;
63782;SDS011;49925;52.522;5.732;2023-04-03T06:09:52;11.05;;;4.13;;
63782;SDS011;49925;52.522;5.732;2023-04-03T06:12:19;9.40;;;3.50;;
63782;SDS011;49925;52.522;5.732;2023-04-03T06:14:47;10.13;;;3.83;;
63782;SDS011;49925;52.522;5.732;2023-04-03T06:17:15;15.25;;;3.45;;
63782;SDS011;49925;52.522;5.732;2023-04-03T06:19:44;11.30;;;3.58;;
63782;SDS011;49925;52.522;5.732;2023-04-03T06:22:12;10.95;;;3.40;;
63782;SDS011;49925;52.522;5.732;2023-04-03T06:24:40;10.30;;;3.83;;
63782;SDS011;49925;52.522;5.732;2023-04-03T06:27:08;11.38;;;4.40;;
63782;SDS011;49925;52.522;5.732;2023-04-03T06:29:37;13.30;;;3.97;;
63782;SDS011;49925;52.522;5.732;2023-04-03T06:32:04;13.68;;;3.85;;
63782;SDS011;49925;52.522;5.732;2023-04-03T06:34:32;10.52;;;3.63;;
63782;SDS011;49925;52.522;5.732;2023-04-03T06:36:59;9.35;;;3.40;;
63782;SDS011;49925;52.522;5.732;2023-04-03T06:39:26;17.35;;;4.43;;
63782;SDS011;49925;52.522;5.732;2023-04-03T06:41:54;15.30;;;3.42;;
63782;SDS011;49925;52.522;5.732;2023-04-03T06:44:22;9.57;;;3.80;;
63782;SDS011;49925;52.522;5.732;2023-04-03T06:46:50;15.35;;;3.95;;
63782;SDS011;49925;52.522;5.732;2023-04-03T06:49:18;20.33;;;5.15;;
63782;SDS011;49925;52.522;5.732;2023-04-03T06:51:45;20.08;;;6.95;;
63782;SDS011;49925;52.522;5.732;2023-04-03T06:54:12;11.55;;;4.25;;
63782;SDS011;49925;52.522;5.732;2023-04-03T06:56:41;11.38;;;3.40;;
63782;SDS011;49925;52.522;5.732;2023-04-03T06:59:09;15.05;;;4.88;;
63782;SDS011;49925;52.522;5.732;2023-04-03T07:01:36;14.88;;;3.95;;
63782;SDS011;49925;52.522;5.732;2023-04-03T07:04:04;13.25;;;5.70;;
63782;SDS011;49925;52.522;5.732;2023-04-03T07:06:31;31.55;;;14.52;;
63782;SDS011;49925;52.522;5.732;2023-04-03T07:08:59;18.40;;;7.05;;
63782;SDS011;49925;52.522;5.732;2023-04-03T07:11:27;19.25;;;8.00;;
63782;SDS011;49925;52.522;5.732;2023-04-03T07:13:54;30.08;;;10.02;;
63782;SDS011;49925;52.522;5.732;2023-04-03T07:16:22;18.45;;;5.72;;
63782;SDS011;49925;52.522;5.732;2023-04-03T07:18:50;9.55;;;3.78;;
63782;SDS011;49925;52.522;5.732;2023-04-03T07:21:17;17.77;;;3.72;;
63782;SDS011;49925;52.522;5.732;2023-04-03T07:23:44;13.52;;;3.85;;
63782;SDS011;49925;52.522;5.732;2023-04-03T07:26:11;18.13;;;7.32;;
63782;SDS011;49925;52.522;5.732;2023-04-03T07:28:39;17.23;;;5.70;;
63782;SDS011;49925;52.522;5.732;2023-04-03T07:31:09;11.13;;;3.85;;
63782;SDS011;49925;52.522;5.732;2023-04-03T07:33:40;7.97;;;3.40;;
63782;SDS011;49925;52.522;5.732;2023-04-03T07:36:08;10.10;;;3.35;;
63782;SDS011;49925;52.522;5.732;2023-04-03T07:38:37;10.40;;;3.35;;
63782;SDS011;49925;52.522;5.732;2023-04-03T07:41:05;15.93;;;4.70;;
63782;SDS011;49925;52.522;5.732;2023-04-03T07:43:33;13.43;;;4.68;;
63782;SDS011;49925;52.522;5.732;2023-04-03T07:46:01;10.48;;;3.80;;
63782;SDS011;49925;52.522;5.732;2023-04-03T07:50:59;13.50;;;4.13;;
63782;SDS011;49925;52.522;5.732;2023-04-03T07:55:55;10.85;;;3.22;;
63782;SDS011;49925;52.522;5.732;2023-04-03T07:58:24;16.67;;;4.00;;
63782;SDS011;49925;52.522;5.732;2023-04-03T08:00:51;12.25;;;3.15;;
63782;SDS011;49925;52.522;5.732;2023-04-03T08:03:19;8.02;;;3.80;;
63782;SDS011;49925;52.522;5.732;2023-04-03T08:05:48;15.43;;;3.90;;
63782;SDS011;49925;52.522;5.732;2023-04-03T08:08:17;9.27;;;2.90;;
63782;SDS011;49925;52.522;5.732;2023-04-03T08:10:48;10.13;;;3.60;;
63782;SDS011;49925;52.522;5.732;2023-04-03T08:15:47;10.00;;;3.80;;
63782;SDS011;49925;52.522;5.732;2023-04-03T08:18:15;15.38;;;3.92;;
63782;SDS011;49925;52.522;5.732;2023-04-03T08:20:43;15.07;;;3.80;;
63782;SDS011;49925;52.522;5.732;2023-04-03T08:23:10;11.70;;;3.22;;
63782;SDS011;49925;52.522;5.732;2023-04-03T08:25:39;12.60;;;3.00;;
63782;SDS011;49925;52.522;5.732;2023-04-03T08:28:07;5.43;;;2.85;;
63782;SDS011;49925;52.522;5.732;2023-04-03T08:30:39;7.20;;;2.55;;
63782;SDS011;49925;52.522;5.732;2023-04-03T08:33:08;9.98;;;2.97;;
63782;SDS011;49925;52.522;5.732;2023-04-03T08:35:40;6.80;;;2.50;;
63782;SDS011;49925;52.522;5.732;2023-04-03T08:40:36;5.53;;;2.70;;
63782;SDS011;49925;52.522;5.732;2023-04-03T08:46:11;10.10;;;3.33;;
63782;SDS011;49925;52.522;5.732;2023-04-03T08:48:42;8.70;;;2.60;;
63782;SDS011;49925;52.522;5.732;2023-04-03T08:51:12;9.43;;;3.08;;
63782;SDS011;49925;52.522;5.732;2023-04-03T08:53:43;8.38;;;3.00;;
63782;SDS011;49925;52.522;5.732;2023-04-03T08:56:26;6.57;;;2.67;;
63782;SDS011;49925;52.522;5.732;2023-04-03T08:58:55;10.00;;;2.90;;
63782;SDS011;49925;52.522;5.732;2023-04-03T09:01:40;5.93;;;2.35;;
63782;SDS011;49925;52.522;5.732;2023-04-03T09:04:15;6.33;;;2.27;;
63782;SDS011;49925;52.522;5.732;2023-04-03T09:06:49;7.40;;;2.53;;
63782;SDS011;49925;52.522;5.732;2023-04-03T09:09:40;6.10;;;2.20;;
63782;SDS011;49925;52.522;5.732;2023-04-03T09:12:32;8.63;;;2.25;;
63782;SDS011;49925;52.522;5.732;2023-04-03T09:15:22;8.80;;;2.40;;
63782;SDS011;49925;52.522;5.732;2023-04-03T09:18:06;8.65;;;2.45;;
63782;SDS011;49925;52.522;5.732;2023-04-03T09:20:54;5.28;;;2.25;;
63782;SDS011;49925;52.522;5.732;2023-04-03T09:23:46;8.35;;;2.30;;
63782;SDS011;49925;52.522;5.732;2023-04-03T09:26:20;8.70;;;2.78;;
63782;SDS011;49925;52.522;5.732;2023-04-03T09:29:10;6.47;;;2.30;;
63782;SDS011;49925;52.522;5.732;2023-04-03T09:31:47;7.55;;;2.55;;
63782;SDS011;49925;52.522;5.732;2023-04-03T09:34:19;8.52;;;2.45;;
63782;SDS011;49925;52.522;5.732;2023-04-03T09:37:00;13.07;;;3.05;;
63782;SDS011;49925;52.522;5.732;2023-04-03T09:39:43;6.53;;;2.03;;
63782;SDS011;49925;52.522;5.732;2023-04-03T09:42:19;5.25;;;1.85;;
63782;SDS011;49925;52.522;5.732;2023-04-03T09:47:34;7.25;;;2.60;;
63782;SDS011;49925;52.522;5.732;2023-04-03T09:50:16;6.35;;;2.28;;
63782;SDS011;49925;52.522;5.732;2023-04-03T09:52:48;5.88;;;2.15;;
63782;SDS011;49925;52.522;5.732;2023-04-03T09:55:22;6.97;;;2.00;;
63782;SDS011;49925;52.522;5.732;2023-04-03T09:57:57;4.55;;;1.90;;
63782;SDS011;49925;52.522;5.732;2023-04-03T10:00:30;3.78;;;2.00;;
63782;SDS011;49925;52.522;5.732;2023-04-03T10:03:04;8.55;;;2.40;;
63782;SDS011;49925;52.522;5.732;2023-04-03T10:05:38;7.18;;;1.92;;
63782;SDS011;49925;52.522;5.732;2023-04-03T10:08:10;5.80;;;1.90;;
63782;SDS011;49925;52.522;5.732;2023-04-03T10:10:41;7.03;;;2.20;;
63782;SDS011;49925;52.522;5.732;2023-04-03T10:13:15;5.15;;;1.90;;
63782;SDS011;49925;52.522;5.732;2023-04-03T10:15:59;8.30;;;2.22;;
63782;SDS011;49925;52.522;5.732;2023-04-03T10:21:15;7.63;;;1.65;;
63782;SDS011;49925;52.522;5.732;2023-04-03T10:23:55;8.05;;;1.65;;
63782;SDS011;49925;52.522;5.732;2023-04-03T10:27:07;4.93;;;1.40;;
63782;SDS011;49925;52.522;5.732;2023-04-03T10:29:47;7.03;;;1.80;;
63782;SDS011;49925;52.522;5.732;2023-04-03T10:32:30;8.98;;;2.00;;
63782;SDS011;49925;52.522;5.732;2023-04-03T10:41:16;3.47;;;1.48;;
63782;SDS011;49925;52.522;5.732;2023-04-03T10:44:10;3.10;;;1.58;;
63782;SDS011;49925;52.522;5.732;2023-04-03T10:47:21;3.20;;;1.47;;
63782;SDS011;49925;52.522;5.732;2023-04-03T10:58:32;4.00;;;1.60;;
63782;SDS011;49925;52.522;5.732;2023-04-03T11:01:11;6.22;;;1.67;;
63782;SDS011;49925;52.522;5.732;2023-04-03T11:03:48;4.00;;;1.75;;
63782;SDS011;49925;52.522;5.732;2023-04-03T11:06:21;6.93;;;2.00;;
63782;SDS011;49925;52.522;5.732;2023-04-03T11:27:43;4.07;;;1.67;;
63782;SDS011;49925;52.522;5.732;2023-04-03T11:30:30;4.80;;;1.73;;
63782;SDS011;49925;52.522;5.732;2023-04-03T11:33:31;5.18;;;1.92;;
63782;SDS011;49925;52.522;5.732;2023-04-03T11:36:40;4.25;;;1.90;;
63782;SDS011;49925;52.522;5.732;2023-04-03T11:39:18;3.42;;;1.67;;
63782;SDS011;49925;52.522;5.732;2023-04-03T11:41:51;6.28;;;1.80;;
63782;SDS011;49925;52.522;5.732;2023-04-03T11:44:37;5.30;;;1.80;;
63782;SDS011;49925;52.522;5.732;2023-04-03T11:47:05;9.02;;;2.03;;
63782;SDS011;49925;52.522;5.732;2023-04-03T12:16:25;5.25;;;2.08;;
63782;SDS011;49925;52.522;5.732;2023-04-03T12:38:47;9.60;;;2.45;;
63782;SDS011;49925;52.522;5.732;2023-04-03T12:41:43;8.05;;;2.10;;
63782;SDS011;49925;52.522;5.732;2023-04-03T12:46:53;10.32;;;1.88;;
63782;SDS011;49925;52.522;5.732;2023-04-03T12:51:59;8.55;;;3.47;;
63782;SDS011;49925;52.522;5.732;2023-04-03T12:54:38;5.20;;;2.20;;
63782;SDS011;49925;52.522;5.732;2023-04-03T12:57:09;6.38;;;2.15;;
63782;SDS011;49925;52.522;5.732;2023-04-03T12:59:38;8.65;;;2.38;;
63782;SDS011;49925;52.522;5.732;2023-04-03T13:05:08;7.10;;;1.80;;
63782;SDS011;49925;52.522;5.732;2023-04-03T13:07:39;5.22;;;1.95;;
63782;SDS011;49925;52.522;5.732;2023-04-03T13:12:51;6.18;;;1.85;;
63782;SDS011;49925;52.522;5.732;2023-04-03T13:15:46;5.32;;;1.90;;
63782;SDS011;49925;52.522;5.732;2023-04-03T13:18:21;6.35;;;2.00;;
63782;SDS011;49925;52.522;5.732;2023-04-03T13:23:43;4.70;;;2.17;;
63782;SDS011;49925;52.522;5.732;2023-04-03T13:26:17;3.75;;;1.70;;
63782;SDS011;49925;52.522;5.732;2023-04-03T13:28:47;7.90;;;2.30;;
63782;SDS011;49925;52.522;5.732;2023-04-03T13:31:30;8.27;;;2.10;;
63782;SDS011;49925;52.522;5.732;2023-04-03T13:34:11;7.95;;;1.92;;
63782;SDS011;49925;52.522;5.732;2023-04-03T13:36:54;6.00;;;2.03;;
63782;SDS011;49925;52.522;5.732;2023-04-03T13:39:25;4.05;;;1.98;;
63782;SDS011;49925;52.522;5.732;2023-04-03T13:41:57;4.43;;;1.77;;
63782;SDS011;49925;52.522;5.732;2023-04-03T13:44:30;4.20;;;1.83;;
63782;SDS011;49925;52.522;5.732;2023-04-03T13:47:15;5.95;;;2.30;;
63782;SDS011;49925;52.522;5.732;2023-04-03T13:50:00;5.13;;;1.80;;
63782;SDS011;49925;52.522;5.732;2023-04-03T13:52:44;4.20;;;1.98;;
63782;SDS011;49925;52.522;5.732;2023-04-03T13:55:18;3.67;;;1.60;;
63782;SDS011;49925;52.522;5.732;2023-04-03T14:03:51;8.02;;;2.20;;
63782;SDS011;49925;52.522;5.732;2023-04-03T14:06:27;6.63;;;2.10;;
63782;SDS011;49925;52.522;5.732;2023-04-03T14:08:55;6.45;;;2.28;;
63782;SDS011;49925;52.522;5.732;2023-04-03T14:11:24;7.57;;;2.17;;
63782;SDS011;49925;52.522;5.732;2023-04-03T14:13:55;6.22;;;2.05;;
63782;SDS011;49925;52.522;5.732;2023-04-03T14:16:27;6.05;;;2.35;;
63782;SDS011;49925;52.522;5.732;2023-04-03T14:19:00;8.05;;;2.40;;
63782;SDS011;49925;52.522;5.732;2023-04-03T14:21:27;7.30;;;2.20;;
63782;SDS011;49925;52.522;5.732;2023-04-03T14:23:55;5.90;;;1.85;;
63782;SDS011;49925;52.522;5.732;2023-04-03T14:26:23;3.35;;;1.83;;
63782;SDS011;49925;52.522;5.732;2023-04-03T14:28:53;5.50;;;2.20;;
63782;SDS011;49925;52.522;5.732;2023-04-03T14:31:22;6.13;;;2.00;;
63782;SDS011;49925;52.522;5.732;2023-04-03T14:33:50;11.50;;;2.58;;
63782;SDS011;49925;52.522;5.732;2023-04-03T14:36:19;6.07;;;2.10;;
63782;SDS011;49925;52.522;5.732;2023-04-03T14:38:50;6.78;;;2.75;;
63782;SDS011;49925;52.522;5.732;2023-04-03T14:41:19;8.50;;;2.30;;
63782;SDS011;49925;52.522;5.732;2023-04-03T14:43:49;6.70;;;2.00;;
63782;SDS011;49925;52.522;5.732;2023-04-03T14:46:18;7.97;;;2.30;;
63782;SDS011;49925;52.522;5.732;2023-04-03T14:49:22;8.45;;;2.20;;
63782;SDS011;49925;52.522;5.732;2023-04-03T14:51:54;4.45;;;2.20;;
63782;SDS011;49925;52.522;5.732;2023-04-03T14:54:23;11.45;;;2.35;;
63782;SDS011;49925;52.522;5.732;2023-04-03T14:59:24;30.48;;;2.88;;
63782;SDS011;49925;52.522;5.732;2023-04-03T15:01:52;9.20;;;2.55;;
63782;SDS011;49925;52.522;5.732;2023-04-03T15:04:20;14.52;;;2.60;;
63782;SDS011;49925;52.522;5.732;2023-04-03T15:06:47;9.75;;;2.20;;
63782;SDS011;49925;52.522;5.732;2023-04-03T15:09:18;41.70;;;3.08;;
63782;SDS011;49925;52.522;5.732;2023-04-03T15:11:51;6.30;;;2.63;;
63782;SDS011;49925;52.522;5.732;2023-04-03T15:14:20;4.90;;;2.15;;
63782;SDS011;49925;52.522;5.732;2023-04-03T15:16:50;6.45;;;2.15;;
63782;SDS011;49925;52.522;5.732;2023-04-03T15:19:17;5.03;;;2.30;;
63782;SDS011;49925;52.522;5.732;2023-04-03T15:21:44;7.45;;;2.50;;
63782;SDS011;49925;52.522;5.732;2023-04-03T15:24:12;7.80;;;2.47;;
63782;SDS011;49925;52.522;5.732;2023-04-03T15:26:39;5.00;;;2.30;;
63782;SDS011;49925;52.522;5.732;2023-04-03T15:29:06;5.50;;;2.20;;
63782;SDS011;49925;52.522;5.732;2023-04-03T15:31:33;9.32;;;2.35;;
63782;SDS011;49925;52.522;5.732;2023-04-03T15:34:00;9.98;;;3.53;;
63782;SDS011;49925;52.522;5.732;2023-04-03T15:36:28;7.82;;;2.50;;
63782;SDS011;49925;52.522;5.732;2023-04-03T15:39:00;7.55;;;2.67;;
63782;SDS011;49925;52.522;5.732;2023-04-03T15:41:27;8.27;;;2.40;;
63782;SDS011;49925;52.522;5.732;2023-04-03T15:43:54;5.15;;;2.65;;
63782;SDS011;49925;52.522;5.732;2023-04-03T15:46:21;5.78;;;2.20;;
63782;SDS011;49925;52.522;5.732;2023-04-03T15:48:49;8.13;;;2.30;;
63782;SDS011;49925;52.522;5.732;2023-04-03T15:51:16;6.72;;;2.42;;
63782;SDS011;49925;52.522;5.732;2023-04-03T15:53:43;9.68;;;2.28;;
63782;SDS011;49925;52.522;5.732;2023-04-03T15:56:10;7.40;;;2.40;;
63782;SDS011;49925;52.522;5.732;2023-04-03T15:58:38;10.68;;;2.58;;
63782;SDS011;49925;52.522;5.732;2023-04-03T16:01:06;8.30;;;2.65;;
63782;SDS011;49925;52.522;5.732;2023-04-03T16:03:36;9.60;;;3.03;;
63782;SDS011;49925;52.522;5.732;2023-04-03T16:06:05;9.40;;;2.42;;
63782;SDS011;49925;52.522;5.732;2023-04-03T16:08:32;6.50;;;2.60;;
63782;SDS011;49925;52.522;5.732;2023-04-03T16:10:59;8.05;;;2.38;;
63782;SDS011;49925;52.522;5.732;2023-04-03T16:13:26;7.50;;;2.35;;
63782;SDS011;49925;52.522;5.732;2023-04-03T16:15:54;7.30;;;2.80;;
63782;SDS011;49925;52.522;5.732;2023-04-03T16:18:22;8.23;;;2.67;;
63782;SDS011;49925;52.522;5.732;2023-04-03T16:20:49;6.72;;;2.83;;
63782;SDS011;49925;52.522;5.732;2023-04-03T16:23:17;6.00;;;2.72;;
63782;SDS011;49925;52.522;5.732;2023-04-03T16:25:45;8.93;;;2.97;;
63782;SDS011;49925;52.522;5.732;2023-04-03T16:28:13;10.23;;;3.08;;
63782;SDS011;49925;52.522;5.732;2023-04-03T16:30:41;8.02;;;2.47;;
63782;SDS011;49925;52.522;5.732;2023-04-03T16:33:08;10.27;;;3.10;;
63782;SDS011;49925;52.522;5.732;2023-04-03T16:35:36;13.07;;;2.45;;
63782;SDS011;49925;52.522;5.732;2023-04-03T16:38:04;8.65;;;2.63;;
63782;SDS011;49925;52.522;5.732;2023-04-03T16:40:31;6.60;;;2.47;;
63782;SDS011;49925;52.522;5.732;2023-04-03T16:43:00;4.30;;;2.70;;
63782;SDS011;49925;52.522;5.732;2023-04-03T16:45:28;6.28;;;2.55;;
63782;SDS011;49925;52.522;5.732;2023-04-03T16:47:55;7.88;;;2.58;;
63782;SDS011;49925;52.522;5.732;2023-04-03T16:50:22;5.30;;;2.80;;
63782;SDS011;49925;52.522;5.732;2023-04-03T16:52:50;7.30;;;2.92;;
63782;SDS011;49925;52.522;5.732;2023-04-03T16:55:17;7.18;;;2.65;;
63782;SDS011;49925;52.522;5.732;2023-04-03T16:57:44;7.68;;;2.55;;
63782;SDS011;49925;52.522;5.732;2023-04-03T17:00:12;9.68;;;2.80;;
63782;SDS011;49925;52.522;5.732;2023-04-03T17:02:40;10.00;;;2.58;;
63782;SDS011;49925;52.522;5.732;2023-04-03T17:05:08;7.95;;;2.63;;
63782;SDS011;49925;52.522;5.732;2023-04-03T17:07:35;10.77;;;2.83;;
63782;SDS011;49925;52.522;5.732;2023-04-03T17:10:02;9.52;;;2.85;;
63782;SDS011;49925;52.522;5.732;2023-04-03T17:12:29;7.68;;;2.70;;
63782;SDS011;49925;52.522;5.732;2023-04-03T17:14:57;6.28;;;2.78;;
63782;SDS011;49925;52.522;5.732;2023-04-03T17:17:24;5.95;;;2.50;;
63782;SDS011;49925;52.522;5.732;2023-04-03T17:19:53;10.93;;;2.85;;
63782;SDS011;49925;52.522;5.732;2023-04-03T17:22:21;7.93;;;3.42;;
63782;SDS011;49925;52.522;5.732;2023-04-03T17:24:48;6.13;;;2.63;;
63782;SDS011;49925;52.522;5.732;2023-04-03T17:27:16;9.88;;;2.75;;
63782;SDS011;49925;52.522;5.732;2023-04-03T17:29:43;8.23;;;2.90;;
63782;SDS011;49925;52.522;5.732;2023-04-03T17:32:10;5.72;;;2.75;;
63782;SDS011;49925;52.522;5.732;2023-04-03T17:34:37;7.78;;;2.70;;
63782;SDS011;49925;52.522;5.732;2023-04-03T17:37:05;5.90;;;2.78;;
63782;SDS011;49925;52.522;5.732;2023-04-03T17:39:35;8.25;;;2.75;;
63782;SDS011;49925;52.522;5.732;2023-04-03T17:42:02;11.18;;;3.00;;
63782;SDS011;49925;52.522;5.732;2023-04-03T17:44:29;5.80;;;2.65;;
63782;SDS011;49925;52.522;5.732;2023-04-03T17:46:56;6.40;;;2.95;;
63782;SDS011;49925;52.522;5.732;2023-04-03T17:49:23;8.60;;;3.08;;
63782;SDS011;49925;52.522;5.732;2023-04-03T17:51:51;9.85;;;2.63;;
63782;SDS011;49925;52.522;5.732;2023-04-03T17:54:19;6.35;;;2.67;;
63782;SDS011;49925;52.522;5.732;2023-04-03T17:56:46;18.45;;;4.03;;
63782;SDS011;49925;52.522;5.732;2023-04-03T17:59:14;5.75;;;2.80;;
63782;SDS011;49925;52.522;5.732;2023-04-03T18:01:43;5.43;;;3.00;;
63782;SDS011;49925;52.522;5.732;2023-04-03T18:04:13;11.13;;;3.45;;
63782;SDS011;49925;52.522;5.732;2023-04-03T18:06:42;7.95;;;3.35;;
63782;SDS011;49925;52.522;5.732;2023-04-03T18:14:13;8.70;;;3.03;;
63782;SDS011;49925;52.522;5.732;2023-04-03T18:16:45;6.82;;;2.97;;
63782;SDS011;49925;52.522;5.732;2023-04-03T18:19:13;10.23;;;3.53;;
63782;SDS011;49925;52.522;5.732;2023-04-03T18:21:43;7.30;;;2.83;;
63782;SDS011;49925;52.522;5.732;2023-04-03T18:24:13;5.65;;;2.58;;
63782;SDS011;49925;52.522;5.732;2023-04-03T18:26:43;5.40;;;3.00;;
63782;SDS011;49925;52.522;5.732;2023-04-03T18:29:12;6.65;;;2.90;;
63782;SDS011;49925;52.522;5.732;2023-04-03T18:31:42;6.10;;;3.20;;
63782;SDS011;49925;52.522;5.732;2023-04-03T18:34:13;7.13;;;3.00;;
63782;SDS011;49925;52.522;5.732;2023-04-03T18:36:41;8.18;;;3.28;;
63782;SDS011;49925;52.522;5.732;2023-04-03T18:39:08;7.82;;;3.20;;